createdAt,value
2019-04-06T00:05:43.891Z,19.60
2019-04-06T00:11:46.623Z,19.60
2019-04-06T00:17:49.359Z,19.60
2019-04-06T00:23:52.347Z,19.60
2019-04-06T00:29:55.321Z,19.50
2019-04-06T00:35:58.043Z,19.50
2019-04-06T00:42:01.097Z,19.50
2019-04-06T00:48:03.832Z,19.40
2019-04-06T00:54:06.654Z,19.40
2019-04-06T01:00:09.379Z,19.30
2019-04-06T01:06:12.116Z,19.30
2019-04-06T01:12:14.844Z,19.20
2019-04-06T01:18:17.581Z,19.20
2019-04-06T01:24:20.637Z,19.30
2019-04-06T01:30:23.379Z,19.20
2019-04-06T01:36:26.125Z,19.10
2019-04-06T01:42:29.334Z,19.10
2019-04-06T01:48:32.083Z,19.10
2019-04-06T01:54:34.811Z,19.00
2019-04-06T02:00:37.540Z,19.00
2019-04-06T02:06:40.274Z,19.00
2019-04-06T02:12:43.003Z,18.90
2019-04-06T02:18:45.738Z,18.90
2019-04-06T02:24:48.461Z,18.80
2019-04-06T02:30:51.248Z,18.80
2019-04-06T02:36:53.979Z,18.80
2019-04-06T02:42:56.708Z,18.80
2019-04-06T02:48:59.726Z,18.70
2019-04-06T02:55:02.752Z,18.70
2019-04-06T03:01:05.785Z,18.60
2019-04-06T03:07:08.524Z,18.60
2019-04-06T03:13:11.263Z,18.60
2019-04-06T03:19:13.985Z,18.50
2019-04-06T03:25:16.719Z,18.50
2019-04-06T03:31:23.472Z,18.40
2019-04-06T03:37:24.021Z,18.40
2019-04-06T03:43:26.785Z,18.40
2019-04-06T03:49:29.839Z,18.30
2019-04-06T03:55:32.606Z,18.30
2019-04-06T04:01:35.493Z,18.30
2019-04-06T04:07:38.261Z,18.20
2019-04-06T04:13:40.988Z,18.20
2019-04-06T04:19:43.814Z,18.10
2019-04-06T04:25:46.751Z,18.10
2019-04-06T04:31:49.540Z,18.10
2019-04-06T04:37:52.284Z,18.00
2019-04-06T04:43:55.208Z,18.00
2019-04-06T04:49:58.212Z,18.00
2019-04-06T04:56:00.928Z,17.90
2019-04-06T05:02:03.934Z,17.90
2019-04-06T05:08:06.672Z,17.90
2019-04-06T05:14:46.049Z,17.80
2019-04-06T05:20:49.113Z,17.90
2019-04-06T05:26:51.920Z,17.80
2019-04-06T05:32:54.924Z,17.80
2019-04-06T05:38:57.651Z,17.90
2019-04-06T05:45:00.396Z,17.80
2019-04-06T05:51:03.113Z,17.90
2019-04-06T05:57:06.154Z,17.90
2019-04-06T06:03:10.743Z,17.90
2019-04-06T06:09:13.335Z,18.00
2019-04-06T06:15:16.212Z,18.00
2019-04-06T06:21:18.972Z,18.00
2019-04-06T06:27:23.043Z,18.00
2019-04-06T06:33:26.151Z,18.00
2019-04-06T06:39:28.876Z,18.00
2019-04-06T06:45:31.880Z,18.10
2019-04-06T06:51:35.033Z,18.00
2019-04-06T06:57:37.796Z,18.10
2019-04-06T07:03:40.557Z,18.10
2019-04-06T07:09:43.352Z,18.10
2019-04-06T07:15:46.093Z,18.10
2019-04-06T07:21:49.002Z,18.10
2019-04-06T07:27:51.832Z,18.10
2019-04-06T07:33:54.559Z,18.10
2019-04-06T07:39:57.287Z,18.10
2019-04-06T07:46:00.253Z,18.10
2019-04-06T07:52:02.995Z,18.10
2019-04-06T07:58:05.768Z,18.10
2019-04-06T08:04:08.732Z,18.10
2019-04-06T08:10:11.788Z,18.10
2019-04-06T08:16:14.508Z,18.10
2019-04-06T08:22:17.601Z,18.10
2019-04-06T08:28:20.328Z,18.10
2019-04-06T08:34:23.152Z,18.20
2019-04-06T08:40:25.876Z,18.20
2019-04-06T08:46:28.603Z,18.20
2019-04-06T08:52:31.331Z,18.30
2019-04-06T08:58:34.547Z,18.20
2019-04-06T09:04:37.656Z,18.30
2019-04-06T09:10:40.384Z,18.30
2019-04-06T09:16:43.108Z,18.40
2019-04-06T09:22:45.911Z,18.40
2019-04-06T09:28:48.637Z,18.40
2019-04-06T09:34:51.848Z,18.50
2019-04-06T09:40:54.919Z,18.50
2019-04-06T09:46:57.708Z,18.60
2019-04-06T09:53:00.455Z,18.70
2019-04-06T09:59:03.261Z,18.70
2019-04-06T10:05:05.995Z,18.70
2019-04-06T10:11:08.727Z,18.80
2019-04-06T10:17:20.880Z,18.80
2019-04-06T10:23:23.611Z,18.90
2019-04-06T10:29:26.472Z,19.00
2019-04-06T10:35:29.274Z,19.10
2019-04-06T10:41:32.017Z,19.10
2019-04-06T10:47:35.100Z,19.20
2019-04-06T10:53:37.831Z,19.20
2019-04-06T10:59:40.608Z,19.30
2019-04-06T11:05:43.716Z,19.40
2019-04-06T11:11:46.444Z,19.40
2019-04-06T11:17:49.436Z,19.40
2019-04-06T11:23:52.375Z,19.50
2019-04-06T11:29:55.191Z,19.50
2019-04-06T11:35:57.924Z,19.60
2019-04-06T11:42:00.878Z,19.60
2019-04-06T11:48:03.652Z,19.70
2019-04-06T11:54:06.703Z,19.80
2019-04-06T12:00:09.539Z,19.80
2019-04-06T12:06:12.502Z,19.90
2019-04-06T12:12:15.287Z,20.00
2019-04-06T12:18:18.598Z,20.00
2019-04-06T12:24:21.525Z,20.10
2019-04-06T12:30:36.100Z,20.10
2019-04-06T12:36:28.813Z,20.20
2019-04-06T12:42:31.906Z,20.20
2019-04-06T12:48:34.889Z,20.30
2019-04-06T12:54:37.856Z,20.30
2019-04-06T13:00:50.799Z,20.40
2019-04-06T13:06:45.052Z,20.40
2019-04-06T13:12:47.792Z,20.50
2019-04-06T13:18:50.688Z,20.60
2019-04-06T13:24:53.887Z,20.60
2019-04-06T13:31:03.370Z,20.70
2019-04-06T13:37:01.188Z,20.70
2019-04-06T13:43:04.175Z,20.80
2019-04-06T13:49:06.960Z,20.80
2019-04-06T13:55:09.708Z,20.90
2019-04-06T14:01:16.002Z,20.90
2019-04-06T14:07:17.031Z,20.90
2019-04-06T14:13:19.855Z,21.00
2019-04-06T14:19:22.779Z,21.00
2019-04-06T14:25:25.889Z,21.00
2019-04-06T14:31:30.380Z,21.10
2019-04-06T14:37:33.107Z,21.10
2019-04-06T14:43:35.858Z,21.10
2019-04-06T14:49:38.576Z,21.10
2019-04-06T14:55:41.312Z,21.10
2019-04-06T15:01:53.386Z,21.20
2019-04-06T15:07:48.607Z,21.20
2019-04-06T15:13:51.331Z,21.20
2019-04-06T15:19:54.063Z,21.20
2019-04-06T15:25:56.919Z,21.20
2019-04-06T15:31:59.704Z,21.20
2019-04-06T15:38:02.484Z,21.30
2019-04-06T15:44:05.245Z,21.30
2019-04-06T15:50:07.983Z,21.30
2019-04-06T15:56:11.015Z,21.30
2019-04-06T16:02:13.960Z,21.30
2019-04-06T16:08:16.739Z,21.30
2019-04-06T16:14:19.456Z,21.30
2019-04-06T16:20:22.288Z,21.30
2019-04-06T16:26:25.021Z,21.30
2019-04-06T16:32:33.247Z,21.30
2019-04-06T16:38:32.246Z,21.30
2019-04-06T16:44:35.051Z,21.30
2019-04-06T16:50:38.116Z,21.30
2019-04-06T16:56:41.113Z,21.30
2019-04-06T17:02:43.847Z,21.30
2019-04-06T17:08:46.955Z,21.30
2019-04-06T17:14:49.773Z,21.30
2019-04-06T17:20:53.044Z,21.30
2019-04-06T17:26:55.910Z,21.40
2019-04-06T17:32:58.692Z,21.40
2019-04-06T17:39:01.550Z,21.50
2019-04-06T17:45:05.827Z,21.60
2019-04-06T17:51:08.908Z,21.70
2019-04-06T17:57:11.772Z,21.90
2019-04-06T18:03:14.765Z,22.00
2019-04-06T18:09:18.152Z,22.10
2019-04-06T18:15:21.130Z,22.20
2019-04-06T18:21:23.865Z,22.20
2019-04-06T18:27:26.603Z,22.20
2019-04-06T18:33:29.366Z,22.30
2019-04-06T18:39:32.450Z,22.30
2019-04-06T18:45:35.576Z,22.30
2019-04-06T18:51:38.602Z,22.20
2019-04-06T18:57:41.483Z,22.20
2019-04-06T19:03:44.217Z,22.20
2019-04-06T19:09:47.326Z,22.20
2019-04-06T19:15:50.194Z,22.10
2019-04-06T19:21:53.468Z,22.10
2019-04-06T19:27:56.408Z,22.00
2019-04-06T19:34:00.448Z,21.90
2019-04-06T19:40:04.978Z,21.90
2019-04-06T19:46:07.771Z,21.90
2019-04-06T19:52:10.854Z,21.80
2019-04-06T19:58:13.860Z,21.80
2019-04-06T20:04:16.817Z,21.80
2019-04-06T20:10:19.684Z,21.70
2019-04-06T20:16:22.873Z,21.70
2019-04-06T20:29:07.996Z,21.60
2019-04-06T20:35:10.961Z,21.50
2019-04-06T20:41:13.786Z,21.50
2019-04-06T20:47:16.810Z,21.50
2019-04-06T20:53:19.951Z,21.50
2019-04-06T20:59:22.931Z,21.40
2019-04-06T21:05:25.785Z,21.40
2019-04-06T21:11:28.965Z,21.30
2019-04-06T21:17:31.804Z,21.30
2019-04-06T21:23:34.566Z,21.30
2019-04-06T21:29:38.118Z,21.20
2019-04-06T21:35:41.092Z,21.20
2019-04-06T21:41:43.827Z,21.10
2019-04-06T21:47:47.796Z,21.10
2019-04-06T21:53:50.579Z,21.00
2019-04-06T21:59:53.315Z,21.00
2019-04-06T22:05:56.032Z,20.90
2019-04-06T22:11:58.756Z,20.90
2019-04-06T22:18:01.484Z,20.80
2019-04-06T22:24:04.577Z,20.80
2019-04-06T22:30:08.009Z,20.70
2019-04-06T22:36:10.859Z,20.70
2019-04-06T22:42:13.580Z,20.60
2019-04-06T22:48:16.328Z,20.60
2019-04-06T22:54:19.634Z,20.60
2019-04-06T23:00:22.578Z,20.50
2019-04-06T23:06:25.472Z,20.50
2019-04-06T23:12:28.918Z,20.40
2019-04-06T23:18:32.186Z,20.40
2019-04-06T23:24:35.372Z,20.30
2019-04-06T23:30:38.502Z,20.30
2019-04-06T23:36:41.971Z,20.30
2019-04-06T23:42:44.803Z,20.20
2019-04-06T23:48:47.559Z,20.20
2019-04-06T23:54:50.344Z,20.10
